Aérodrome :
LOGIN :

S'inscrire | Disclaimer

   EN    FR    IT 

 










Légende :    VFR   VFR Marginal   IFR   IFR Intensif   IFR Très Intensif
Visi : 
Plafond : 
>= 8 km
>= 3000ft
5 à 8 km
1000 à 3000 ft
1500m à 5 km
500 à 1000 ft
800 à 1500m
200 à 500 ft
< 800m
< 200 ft
Symboles :   Orages  Brouillard  Fortes neiges  Fortes précipitations  Vent > 20 kt
SIGMETs :   Divers  Orages  Givrage  Turbulence  Onde Orograph.  Cendres Volcan.







- Altitude de l'aérodrome : 408 ft
- Code IATA : FKB


EDSB - Karlsruhe Baden Baden

DERNIER METAR :
  • 131250Z 21018KT CAVOK 07/M02 Q1008

METARs EXPIRÉS :
  • 131220Z 21017KT CAVOK 07/M02 Q1009
  • 131150Z 20018KT CAVOK 06/M02 Q1009
  • 131120Z 20018KT CAVOK 06/M02 Q1010
  • 131050Z 20018KT CAVOK 06/M03 Q1012
  • 131020Z 20019KT CAVOK 06/M02 Q1012

TAF TAF EDSB
Valide du 13 à 12h jusqu'au 14 à 12h UTC


131100Z 1312/1412 20015G25KT 9999 BKN030
TEMPO 1312/1318 RA
PROB30
TEMPO 1318/1404 RA
TEMPO 1404/1412 SHRA BKN020CB
Pas de NOTAMs connus pour ce terrain.



MET'MAP, la Météo Aéronautique d'un coup d'oeil ! - Copyright ORBIFLY Décembre 2007 - Disclaimer

ORBIFLY MET'MAP TEAM :

Programmation & Développement : Alexandra Zaïnal
Conception & Développement : Baudouin d'Aumeries
Co-Programmation & Développement : Marc-Olivier Méhu
Soutien technique & logistique : Manuel Goepfert

Contact : metmap@orbifly.com




SOURCES & CREDITS :

   NOAA